createdAt,value
2018-11-13T00:00:20.550Z,32.30
2018-11-13T00:02:49.795Z,32.43
2018-11-13T00:05:18.311Z,32.37
2018-11-13T00:07:46.884Z,32.13
2018-11-13T00:10:15.438Z,33.00
2018-11-13T00:12:43.980Z,32.07
2018-11-13T00:15:13.246Z,33.03
2018-11-13T00:17:41.833Z,31.90
2018-11-13T00:20:12.858Z,33.83
2018-11-13T00:22:41.765Z,31.83
2018-11-13T00:25:11.848Z,32.60
2018-11-13T00:27:41.160Z,32.30
2018-11-13T00:30:13.106Z,32.33
2018-11-13T00:32:42.017Z,31.97
2018-11-13T00:35:10.910Z,32.90
2018-11-13T00:37:39.501Z,32.30
2018-11-13T00:40:09.272Z,32.63
2018-11-13T00:42:37.935Z,33.70
2018-11-13T00:45:07.051Z,33.07
2018-11-13T00:47:35.611Z,34.23
2018-11-13T00:50:04.651Z,33.87
2018-11-13T00:52:33.344Z,34.73
2018-11-13T00:55:02.463Z,33.33
2018-11-13T00:57:30.751Z,33.73
2018-11-13T00:59:59.293Z,33.77
2018-11-13T01:02:28.093Z,35.90
2018-11-13T01:04:56.711Z,35.27
2018-11-13T01:07:25.258Z,32.93
2018-11-13T01:09:53.777Z,35.60
2018-11-13T01:12:22.328Z,34.47
2018-11-13T01:14:51.144Z,34.70
2018-11-13T01:17:19.714Z,33.60
2018-11-13T01:19:48.241Z,34.83
2018-11-13T01:22:16.805Z,34.33
2018-11-13T01:24:45.409Z,34.83
2018-11-13T01:27:13.962Z,34.20
2018-11-13T01:29:46.711Z,34.13
2018-11-13T01:32:15.262Z,34.40
2018-11-13T01:34:43.830Z,33.80
2018-11-13T01:37:12.346Z,35.43
2018-11-13T01:39:40.920Z,34.90
2018-11-13T01:42:09.469Z,34.40
2018-11-13T01:44:38.024Z,35.20
2018-11-13T01:47:06.940Z,37.00
2018-11-13T01:49:36.039Z,34.93
2018-11-13T01:52:04.960Z,33.80
2018-11-13T01:54:33.489Z,33.10
2018-11-13T01:57:02.650Z,34.03
2018-11-13T01:59:31.237Z,34.70
2018-11-13T02:01:59.801Z,33.57
2018-11-13T02:04:28.361Z,33.27
2018-11-13T02:06:56.967Z,34.07
2018-11-13T02:09:25.508Z,33.93
2018-11-13T02:11:54.070Z,33.70
2018-11-13T02:14:22.603Z,33.57
2018-11-13T02:16:51.160Z,33.63
2018-11-13T02:19:19.745Z,33.47
2018-11-13T02:21:48.335Z,34.17
2018-11-13T02:24:17.038Z,34.37
2018-11-13T02:26:45.560Z,34.50
2018-11-13T02:29:14.129Z,32.80
2018-11-13T02:31:42.864Z,32.83
2018-11-13T02:34:11.452Z,32.97
2018-11-13T02:36:40.151Z,31.67
2018-11-13T02:39:09.874Z,31.83
2018-11-13T02:41:38.429Z,32.30
2018-11-13T02:44:07.465Z,31.07
2018-11-13T02:46:36.216Z,31.77
2018-11-13T02:49:05.525Z,32.90
2018-11-13T02:51:34.643Z,32.33
2018-11-13T02:54:03.204Z,31.50
2018-11-13T02:56:33.339Z,32.07
2018-11-13T02:59:02.133Z,31.93
2018-11-13T03:01:30.929Z,31.20
2018-11-13T03:03:59.506Z,31.23
2018-11-13T03:06:28.074Z,29.73
2018-11-13T03:08:56.632Z,30.50
2018-11-13T03:11:25.181Z,31.03
2018-11-13T03:13:53.769Z,29.73
2018-11-13T03:16:22.292Z,28.53
2018-11-13T03:18:50.846Z,29.50
2018-11-13T03:21:19.386Z,29.17
2018-11-13T03:23:48.056Z,29.80
2018-11-13T03:26:16.748Z,30.30
2018-11-13T03:28:45.286Z,29.50
2018-11-13T03:31:13.878Z,28.93
2018-11-13T03:33:42.441Z,29.27
2018-11-13T03:36:11.001Z,27.60
2018-11-13T03:38:39.584Z,28.70
2018-11-13T03:41:08.147Z,29.23
2018-11-13T03:43:36.765Z,28.00
2018-11-13T03:46:05.617Z,27.83
2018-11-13T03:48:34.691Z,28.13
2018-11-13T03:51:03.393Z,28.03
2018-11-13T03:53:31.961Z,28.87
2018-11-13T03:56:00.484Z,29.53
2018-11-13T03:58:29.060Z,27.43
2018-11-13T04:00:57.644Z,28.57
2018-11-13T04:03:26.217Z,27.83
2018-11-13T04:05:54.766Z,29.53
2018-11-13T04:08:23.324Z,27.50
2018-11-13T04:10:51.969Z,28.30
2018-11-13T04:13:20.514Z,28.23
2018-11-13T04:15:49.111Z,28.10
2018-11-13T04:18:17.664Z,27.87
2018-11-13T04:20:46.235Z,27.73
2018-11-13T04:23:14.769Z,27.10
2018-11-13T04:25:43.282Z,27.80
2018-11-13T04:28:11.877Z,27.17
2018-11-13T04:30:40.563Z,27.13
2018-11-13T04:33:09.333Z,27.27
2018-11-13T04:35:37.861Z,26.47
2018-11-13T04:38:06.423Z,28.07
2018-11-13T04:40:34.973Z,26.83
2018-11-13T04:43:03.488Z,26.87
2018-11-13T04:45:32.031Z,27.33
2018-11-13T04:48:00.628Z,27.47
2018-11-13T04:50:29.169Z,26.40
2018-11-13T04:52:57.701Z,26.57
2018-11-13T04:55:26.271Z,27.73
2018-11-13T04:57:54.847Z,26.03
2018-11-13T05:00:24.337Z,26.50
2018-11-13T05:02:53.079Z,25.03
2018-11-13T05:05:22.416Z,25.57
2018-11-13T05:07:52.651Z,25.93
2018-11-13T05:10:21.535Z,25.17
2018-11-13T05:12:50.324Z,24.80
2018-11-13T05:15:19.216Z,25.73
2018-11-13T05:17:48.193Z,24.93
2018-11-13T05:20:17.706Z,24.33
2018-11-13T05:22:46.285Z,25.50
2018-11-13T05:25:16.309Z,24.70
2018-11-13T05:27:45.190Z,24.43
2018-11-13T05:30:19.408Z,23.93
2018-11-13T05:32:47.958Z,23.53
2018-11-13T05:35:18.116Z,23.97
2018-11-13T05:37:47.313Z,23.73
2018-11-13T05:40:17.476Z,22.80
2018-11-13T05:42:46.312Z,22.70
2018-11-13T05:45:16.265Z,22.57
2018-11-13T05:47:44.840Z,23.23
2018-11-13T05:50:14.658Z,22.73
2018-11-13T05:52:44.140Z,22.23
2018-11-13T05:55:13.535Z,23.40
2018-11-13T05:57:42.121Z,22.43
2018-11-13T06:00:14.272Z,22.80
2018-11-13T06:02:42.823Z,20.60
2018-11-13T06:05:12.267Z,20.30
2018-11-13T06:07:41.288Z,21.50
2018-11-13T06:10:11.012Z,19.90
2018-11-13T06:12:39.565Z,20.03
2018-11-13T06:15:08.668Z,20.27
2018-11-13T06:17:37.206Z,20.03
2018-11-13T06:20:07.649Z,21.00
2018-11-13T06:22:36.239Z,20.27
2018-11-13T06:25:05.260Z,20.07
2018-11-13T06:27:33.834Z,18.63
2018-11-13T06:30:02.382Z,21.20
2018-11-13T06:32:30.904Z,20.30
2018-11-13T06:34:59.477Z,20.03
2018-11-13T06:37:28.023Z,20.20
2018-11-13T06:39:56.560Z,19.17
2018-11-13T06:42:25.136Z,20.43
2018-11-13T06:44:53.675Z,20.63
2018-11-13T06:47:22.591Z,19.63
2018-11-13T06:49:51.165Z,20.63
2018-11-13T06:52:19.706Z,20.97
2018-11-13T06:54:58.630Z,21.23
2018-11-13T06:57:27.192Z,20.90
2018-11-13T06:59:56.618Z,22.00
2018-11-13T07:02:25.143Z,21.53
2018-11-13T07:04:53.794Z,20.07
2018-11-13T07:07:22.302Z,21.90
2018-11-13T07:09:50.961Z,21.47
2018-11-13T07:12:19.887Z,22.23
2018-11-13T07:14:48.591Z,21.40
2018-11-13T07:17:17.497Z,21.83
2018-11-13T07:19:46.067Z,21.50
2018-11-13T07:22:15.050Z,21.57
2018-11-13T07:24:43.623Z,19.87
2018-11-13T07:27:12.135Z,20.50
2018-11-13T07:29:40.768Z,21.30
2018-11-13T07:32:09.340Z,20.03
2018-11-13T07:34:37.873Z,21.70
2018-11-13T07:37:06.470Z,20.53
2018-11-13T07:39:35.103Z,21.77
2018-11-13T07:42:03.632Z,21.20
2018-11-13T07:44:32.195Z,21.73
2018-11-13T07:47:00.928Z,19.43
2018-11-13T07:49:29.976Z,19.90
2018-11-13T07:51:58.662Z,20.83
2018-11-13T07:54:27.252Z,21.80
2018-11-13T07:56:55.934Z,20.40
2018-11-13T07:59:24.523Z,20.03
2018-11-13T08:01:53.041Z,21.00
2018-11-13T08:04:21.579Z,19.37
2018-11-13T08:06:50.251Z,20.83
2018-11-13T08:09:18.889Z,19.93
2018-11-13T08:11:47.484Z,20.03
2018-11-13T08:14:16.037Z,20.40
2018-11-13T08:16:44.613Z,20.33
2018-11-13T08:19:13.155Z,20.57
2018-11-13T08:21:41.737Z,19.83
2018-11-13T08:24:10.436Z,20.30
2018-11-13T08:26:39.011Z,19.47
2018-11-13T08:29:07.585Z,20.10
2018-11-13T08:31:36.144Z,19.60
2018-11-13T08:34:05.226Z,20.03
2018-11-13T08:36:33.822Z,19.90
2018-11-13T08:39:02.364Z,19.40
2018-11-13T08:41:30.907Z,19.20
2018-11-13T08:43:59.485Z,20.37
2018-11-13T08:46:28.056Z,20.03
2018-11-13T08:48:56.561Z,20.03
2018-11-13T08:51:25.082Z,18.67
2018-11-13T08:53:53.634Z,17.90
2018-11-13T08:56:22.192Z,19.13
2018-11-13T08:58:50.770Z,19.40
2018-11-13T09:01:19.391Z,18.10
2018-11-13T09:03:48.030Z,19.13
2018-11-13T09:06:16.612Z,18.57
2018-11-13T09:08:45.181Z,18.67
2018-11-13T09:11:13.858Z,18.90
2018-11-13T09:13:42.412Z,18.47
2018-11-13T09:16:11.183Z,19.20
2018-11-13T09:18:39.886Z,18.33
2018-11-13T09:21:08.557Z,17.67
2018-11-13T09:23:37.174Z,18.27
2018-11-13T09:26:06.176Z,17.40
2018-11-13T09:28:34.741Z,16.47
2018-11-13T09:31:03.573Z,18.53
2018-11-13T09:33:32.014Z,17.03
2018-11-13T09:36:00.616Z,17.90
2018-11-13T09:38:29.170Z,17.03
2018-11-13T09:40:57.722Z,17.07
2018-11-13T09:43:26.326Z,15.93
2018-11-13T09:45:54.943Z,16.20
2018-11-13T09:48:23.453Z,14.93
2018-11-13T09:50:52.065Z,15.03
2018-11-13T09:53:20.760Z,14.83
2018-11-13T09:55:49.287Z,15.00
2018-11-13T09:58:17.864Z,15.00
2018-11-13T10:00:46.615Z,13.43
2018-11-13T10:03:15.779Z,15.00
2018-11-13T10:05:43.721Z,14.10
2018-11-13T10:08:12.174Z,14.70
2018-11-13T10:10:40.810Z,14.03
2018-11-13T10:13:09.316Z,13.60
2018-11-13T10:15:37.904Z,14.60
2018-11-13T10:18:06.552Z,13.80
2018-11-13T10:20:35.072Z,14.13
2018-11-13T10:23:03.680Z,13.50
2018-11-13T10:25:32.248Z,12.73
2018-11-13T10:28:01.036Z,15.07
2018-11-13T10:30:29.696Z,13.90
2018-11-13T10:32:58.235Z,14.30
2018-11-13T10:35:27.373Z,15.43
2018-11-13T10:37:56.081Z,15.00
2018-11-13T10:40:24.736Z,16.33
2018-11-13T10:42:53.861Z,16.83
2018-11-13T10:45:26.922Z,17.63
2018-11-13T10:47:55.495Z,17.40
2018-11-13T10:50:25.201Z,16.77
2018-11-13T10:52:54.143Z,17.07
2018-11-13T10:55:23.018Z,16.50
2018-11-13T10:57:51.632Z,15.73
2018-11-13T11:00:25.407Z,15.77
2018-11-13T11:02:58.197Z,15.27
2018-11-13T11:05:27.905Z,15.10
2018-11-13T11:07:57.088Z,15.83
2018-11-13T11:10:26.174Z,13.80
2018-11-13T11:12:54.788Z,14.20
2018-11-13T11:15:23.547Z,14.07
2018-11-13T11:17:52.500Z,12.93
2018-11-13T11:20:21.088Z,14.90
2018-11-13T11:22:49.866Z,13.80
2018-11-13T11:25:18.467Z,14.17
2018-11-13T11:27:47.047Z,14.37
2018-11-13T11:30:16.710Z,14.17
2018-11-13T11:32:45.274Z,14.13
2018-11-13T11:35:13.847Z,13.33
2018-11-13T11:37:42.772Z,14.30
2018-11-13T11:40:12.441Z,13.60
2018-11-13T11:42:41.001Z,13.83
2018-11-13T11:45:11.839Z,13.33
2018-11-13T11:47:40.565Z,13.13
2018-11-13T11:50:10.215Z,13.90
2018-11-13T11:52:39.074Z,14.23
2018-11-13T11:55:07.994Z,13.50
2018-11-13T11:57:36.550Z,15.43
2018-11-13T12:00:09.134Z,13.90
2018-11-13T12:02:37.731Z,14.50
2018-11-13T12:05:07.629Z,14.37
2018-11-13T12:07:36.948Z,14.87
2018-11-13T12:10:07.507Z,13.87
2018-11-13T12:12:36.122Z,11.90
2018-11-13T12:15:05.339Z,12.17
2018-11-13T12:17:34.110Z,12.00
2018-11-13T12:20:02.762Z,12.20
2018-11-13T12:22:31.991Z,12.03
2018-11-13T12:25:00.626Z,11.73
2018-11-13T12:27:29.204Z,12.47
2018-11-13T12:29:57.811Z,12.13
2018-11-13T12:32:26.847Z,10.97
2018-11-13T12:34:55.475Z,10.50
2018-11-13T12:37:24.227Z,10.70
2018-11-13T12:39:52.761Z,10.77
2018-11-13T12:42:22.067Z,10.50
2018-11-13T12:44:50.725Z,9.60
2018-11-13T12:47:19.280Z,9.80
2018-11-13T12:49:47.905Z,9.80
2018-11-13T12:52:17.552Z,9.53
2018-11-13T12:54:47.621Z,9.00
2018-11-13T12:57:17.208Z,8.97
2018-11-13T12:59:45.811Z,8.50
2018-11-13T13:02:14.397Z,7.77
2018-11-13T13:04:42.952Z,8.13
2018-11-13T13:07:11.544Z,8.17
2018-11-13T13:09:40.106Z,7.47
2018-11-13T13:12:09.780Z,7.57
2018-11-13T13:14:38.612Z,6.47
2018-11-13T13:17:07.505Z,6.60
2018-11-13T13:19:36.067Z,6.17
2018-11-13T13:22:04.693Z,5.77
2018-11-13T13:24:33.251Z,5.90
2018-11-13T13:27:01.807Z,5.10
2018-11-13T13:29:30.356Z,4.97
2018-11-13T13:31:59.212Z,4.50
2018-11-13T13:34:27.724Z,4.30
2018-11-13T13:36:56.283Z,3.70
2018-11-13T13:39:24.894Z,3.93
2018-11-13T13:41:53.545Z,3.70
2018-11-13T13:44:22.041Z,3.83
2018-11-13T13:46:50.645Z,4.07
2018-11-13T13:49:19.203Z,4.03
2018-11-13T13:51:47.800Z,3.97
2018-11-13T13:54:16.425Z,3.37
2018-11-13T13:56:45.016Z,3.13
2018-11-13T13:59:13.626Z,2.87
2018-11-13T14:01:42.184Z,3.10
2018-11-13T14:04:10.709Z,3.17
2018-11-13T14:06:39.412Z,2.87
2018-11-13T14:09:09.606Z,2.90
2018-11-13T14:11:38.356Z,3.43
2018-11-13T14:14:07.258Z,2.90
2018-11-13T14:16:35.824Z,2.60
2018-11-13T14:19:04.624Z,2.37
2018-11-13T14:21:33.187Z,2.50
2018-11-13T14:24:01.738Z,2.40
2018-11-13T14:26:30.313Z,2.40
2018-11-13T14:28:59.418Z,3.17
2018-11-13T14:31:27.937Z,2.67
2018-11-13T14:33:56.480Z,2.13
2018-11-13T14:36:25.205Z,2.40
2018-11-13T14:38:53.749Z,2.27
2018-11-13T14:41:22.291Z,2.80
2018-11-13T14:43:50.849Z,2.90
2018-11-13T14:46:19.473Z,2.67
2018-11-13T14:48:48.016Z,1.87
2018-11-13T14:51:16.638Z,2.13
2018-11-13T14:53:45.198Z,2.43
2018-11-13T14:56:14.204Z,2.50
2018-11-13T14:58:43.296Z,1.90
2018-11-13T15:01:11.867Z,2.07
2018-11-13T15:03:40.433Z,2.57
2018-11-13T15:06:08.998Z,2.00
2018-11-13T15:08:38.421Z,1.67
2018-11-13T15:11:07.036Z,2.60
2018-11-13T15:13:35.588Z,1.90
2018-11-13T15:16:05.005Z,2.77
2018-11-13T15:18:33.611Z,2.17
2018-11-13T15:21:02.217Z,1.80
2018-11-13T15:23:30.779Z,2.10
2018-11-13T15:25:59.443Z,1.97
2018-11-13T15:28:28.306Z,1.90
2018-11-13T15:30:57.274Z,2.03
2018-11-13T15:33:25.785Z,2.13
2018-11-13T15:35:54.354Z,1.97
2018-11-13T15:38:23.133Z,1.90
2018-11-13T15:40:51.772Z,1.90
2018-11-13T15:43:20.373Z,2.13
2018-11-13T15:45:48.992Z,1.93
2018-11-13T15:48:17.538Z,2.10
2018-11-13T15:50:46.363Z,1.83
2018-11-13T15:53:14.933Z,2.30
2018-11-13T15:55:43.534Z,2.10
2018-11-13T15:58:12.147Z,2.07
2018-11-13T16:00:41.783Z,2.27
2018-11-13T16:03:19.358Z,1.90
2018-11-13T16:05:49.386Z,1.80
2018-11-13T16:08:17.975Z,2.53
2018-11-13T16:10:46.623Z,1.70
2018-11-13T16:13:15.192Z,1.80
2018-11-13T16:15:44.500Z,2.40
2018-11-13T16:18:15.566Z,2.17
2018-11-13T16:20:44.130Z,1.80
2018-11-13T16:23:12.767Z,2.13
2018-11-13T16:25:41.642Z,1.93
2018-11-13T16:28:10.240Z,2.10
2018-11-13T16:30:39.365Z,1.70
2018-11-13T16:33:08.034Z,2.07
2018-11-13T16:35:36.762Z,2.10
2018-11-13T16:38:06.940Z,2.10
2018-11-13T16:40:35.550Z,2.43
2018-11-13T16:43:04.193Z,2.20
2018-11-13T16:45:33.728Z,2.30
2018-11-13T16:48:03.004Z,2.20
2018-11-13T16:50:33.047Z,2.43
2018-11-13T16:53:01.649Z,1.70
2018-11-13T16:55:35.401Z,2.03
2018-11-13T16:58:05.082Z,2.50
2018-11-13T17:00:33.851Z,2.20
2018-11-13T17:03:02.470Z,2.30
2018-11-13T17:05:31.319Z,1.97
2018-11-13T17:07:59.825Z,1.97
2018-11-13T17:10:30.735Z,2.00
2018-11-13T17:13:00.110Z,2.30
2018-11-13T17:15:30.009Z,2.33
2018-11-13T17:17:59.723Z,2.30
2018-11-13T17:20:28.421Z,2.13
2018-11-13T17:22:57.013Z,2.53
2018-11-13T17:25:29.999Z,2.53
2018-11-13T17:27:58.569Z,2.73
2018-11-13T17:30:28.856Z,3.03
2018-11-13T17:32:58.619Z,3.27
2018-11-13T17:35:27.769Z,2.50
2018-11-13T17:37:56.936Z,2.60
2018-11-13T17:40:28.891Z,2.80
2018-11-13T17:42:58.904Z,3.00
2018-11-13T17:45:28.965Z,2.73
2018-11-13T17:47:57.805Z,2.90
2018-11-13T17:50:28.953Z,3.30
2018-11-13T17:52:57.503Z,2.80
2018-11-13T17:55:26.605Z,3.47
2018-11-13T17:57:56.632Z,3.50
2018-11-13T18:00:28.422Z,3.07
2018-11-13T18:02:57.805Z,3.53
2018-11-13T18:05:27.245Z,3.50
2018-11-13T18:07:57.137Z,3.40
2018-11-13T18:10:26.190Z,2.83
2018-11-13T18:12:54.820Z,3.03
2018-11-13T18:15:25.650Z,3.17
2018-11-13T18:17:54.297Z,3.00
2018-11-13T18:20:24.430Z,3.10
2018-11-13T18:22:53.087Z,2.83
2018-11-13T18:25:21.718Z,3.10
2018-11-13T18:27:51.848Z,3.20
2018-11-13T18:30:23.066Z,2.90
2018-11-13T18:32:51.920Z,2.80
2018-11-13T18:35:22.809Z,3.30
2018-11-13T18:37:53.019Z,3.53
2018-11-13T18:40:22.355Z,3.70
2018-11-13T18:42:51.909Z,3.77
2018-11-13T18:45:27.850Z,3.00
2018-11-13T18:47:56.406Z,3.23
2018-11-13T18:50:33.814Z,3.40
2018-11-13T18:53:02.384Z,4.00
2018-11-13T18:55:31.023Z,3.60
2018-11-13T18:58:00.231Z,3.87
2018-11-13T19:00:30.016Z,3.60
2018-11-13T19:02:59.526Z,3.43
2018-11-13T19:05:28.666Z,3.47
2018-11-13T19:07:57.714Z,3.70
2018-11-13T19:10:35.830Z,3.90
2018-11-13T19:13:06.456Z,4.00
2018-11-13T19:15:36.616Z,4.03
2018-11-13T19:18:06.095Z,4.90
2018-11-13T19:20:34.681Z,3.80
2018-11-13T19:23:03.349Z,4.10
2018-11-13T19:25:33.070Z,3.97
2018-11-13T19:28:01.993Z,4.20
2018-11-13T19:30:30.655Z,4.13
2018-11-13T19:32:59.286Z,3.97
2018-11-13T19:35:28.068Z,4.57
2018-11-13T19:37:56.633Z,4.20
2018-11-13T19:40:28.206Z,3.67
2018-11-13T19:42:58.022Z,3.60
2018-11-13T19:45:27.490Z,4.00
2018-11-13T19:47:56.067Z,4.37
2018-11-13T19:50:26.290Z,3.90
2018-11-13T19:52:55.055Z,4.03
2018-11-13T19:55:24.631Z,4.00
2018-11-13T19:57:53.298Z,4.40
2018-11-13T20:00:25.166Z,4.50
2018-11-13T20:02:54.698Z,4.43
2018-11-13T20:05:23.711Z,4.57
2018-11-13T20:07:52.369Z,4.63
2018-11-13T20:10:23.205Z,4.40
2018-11-13T20:12:52.640Z,4.53
2018-11-13T20:15:22.198Z,4.17
2018-11-13T20:17:50.840Z,4.87
2018-11-13T20:20:27.291Z,4.73
2018-11-13T20:22:56.321Z,4.67
2018-11-13T20:25:27.179Z,4.30
2018-11-13T20:27:55.909Z,4.10
2018-11-13T20:30:26.618Z,4.73
2018-11-13T20:32:55.465Z,4.43
2018-11-13T20:35:24.765Z,4.67
2018-11-13T20:37:54.334Z,5.00
2018-11-13T20:40:24.204Z,4.87
2018-11-13T20:42:54.103Z,4.37
2018-11-13T20:45:22.753Z,4.50
2018-11-13T20:47:52.267Z,4.33
2018-11-13T20:50:22.442Z,5.20
2018-11-13T20:52:51.128Z,4.37
2018-11-13T20:55:19.704Z,4.57
2018-11-13T20:57:48.306Z,4.37
2018-11-13T21:00:22.052Z,4.30
2018-11-13T21:02:51.383Z,4.87
2018-11-13T21:05:20.060Z,4.10
2018-11-13T21:07:48.825Z,5.30
2018-11-13T21:10:18.950Z,4.20
2018-11-13T21:12:47.870Z,4.30
2018-11-13T21:15:17.845Z,4.63
2018-11-13T21:17:46.630Z,4.60
2018-11-13T21:20:17.572Z,4.77
2018-11-13T21:22:46.251Z,4.53
2018-11-13T21:25:17.288Z,4.57
2018-11-13T21:27:46.029Z,4.90
2018-11-13T21:30:18.023Z,5.03
2018-11-13T21:32:47.213Z,4.90
2018-11-13T21:35:16.205Z,5.03
2018-11-13T21:37:46.154Z,4.93
2018-11-13T21:40:16.009Z,4.97
2018-11-13T21:42:45.208Z,5.00
2018-11-13T21:45:14.389Z,5.10
2018-11-13T21:47:43.449Z,4.93
2018-11-13T21:50:13.480Z,4.80
2018-11-13T21:52:42.342Z,4.60
2018-11-13T21:55:12.774Z,5.90
2018-11-13T21:57:41.578Z,4.63
2018-11-13T22:00:20.176Z,4.53
2018-11-13T22:02:51.788Z,5.67
2018-11-13T22:05:21.231Z,5.20
2018-11-13T22:07:49.940Z,4.87
2018-11-13T22:10:18.609Z,5.40
2018-11-13T22:12:47.635Z,5.13
2018-11-13T22:15:17.419Z,5.40
2018-11-13T22:17:46.037Z,5.47
2018-11-13T22:20:16.030Z,5.30
2018-11-13T22:22:44.700Z,5.23
2018-11-13T22:25:15.332Z,5.80
2018-11-13T22:27:45.020Z,5.23
2018-11-13T22:30:15.653Z,5.67
2018-11-13T22:32:44.606Z,6.00
2018-11-13T22:35:13.901Z,5.90
2018-11-13T22:37:42.828Z,5.63
2018-11-13T22:40:14.696Z,5.30
2018-11-13T22:42:43.446Z,5.90
2018-11-13T22:45:15.157Z,6.17
2018-11-13T22:47:43.758Z,6.30
2018-11-13T22:50:15.656Z,5.50
2018-11-13T22:52:44.908Z,6.40
2018-11-13T22:55:14.204Z,5.93
2018-11-13T22:57:43.997Z,6.37
2018-11-13T23:00:18.622Z,5.50
2018-11-13T23:02:48.759Z,6.23
2018-11-13T23:05:17.483Z,6.10
2018-11-13T23:07:46.106Z,5.73
2018-11-13T23:10:15.525Z,6.20
2018-11-13T23:12:44.853Z,6.23
2018-11-13T23:15:15.203Z,6.70
2018-11-13T23:17:44.346Z,6.90
2018-11-13T23:20:15.059Z,7.00
2018-11-13T23:22:43.788Z,6.70
2018-11-13T23:25:13.516Z,7.63
2018-11-13T23:27:42.808Z,6.53
2018-11-13T23:30:14.240Z,7.50
2018-11-13T23:32:43.004Z,7.10
2018-11-13T23:35:12.222Z,7.97
2018-11-13T23:37:41.401Z,6.90
2018-11-13T23:40:12.478Z,8.30
2018-11-13T23:42:41.470Z,8.10
2018-11-13T23:45:10.773Z,8.00
2018-11-13T23:47:39.374Z,8.00
2018-11-13T23:50:08.694Z,8.00
2018-11-13T23:52:37.363Z,7.87
2018-11-13T23:55:07.099Z,8.60
2018-11-13T23:57:35.647Z,7.40
